sensor_id;sensor_type;location;lat;lon;timestamp;P1;durP1;ratioP1;P2;durP2;ratioP2
74957;SDS011;63741;42.624;26.276;2023-03-19T00:02:07;5.30;;;2.65;;
74957;SDS011;63741;42.624;26.276;2023-03-19T00:04:44;6.60;;;3.40;;
74957;SDS011;63741;42.624;26.276;2023-03-19T00:07:13;8.38;;;3.28;;
74957;SDS011;63741;42.624;26.276;2023-03-19T00:09:42;5.13;;;2.90;;
74957;SDS011;63741;42.624;26.276;2023-03-19T00:12:12;5.68;;;3.00;;
74957;SDS011;63741;42.624;26.276;2023-03-19T00:14:39;6.07;;;3.17;;
74957;SDS011;63741;42.624;26.276;2023-03-19T00:17:06;5.35;;;2.90;;
74957;SDS011;63741;42.624;26.276;2023-03-19T00:19:33;5.43;;;2.78;;
74957;SDS011;63741;42.624;26.276;2023-03-19T00:22:00;5.88;;;3.15;;
74957;SDS011;63741;42.624;26.276;2023-03-19T00:24:27;5.50;;;3.25;;
74957;SDS011;63741;42.624;26.276;2023-03-19T00:26:54;5.13;;;3.03;;
74957;SDS011;63741;42.624;26.276;2023-03-19T00:29:21;4.13;;;2.78;;
74957;SDS011;63741;42.624;26.276;2023-03-19T00:31:48;5.55;;;2.75;;
74957;SDS011;63741;42.624;26.276;2023-03-19T00:34:16;5.53;;;3.28;;
74957;SDS011;63741;42.624;26.276;2023-03-19T00:36:47;5.22;;;3.20;;
74957;SDS011;63741;42.624;26.276;2023-03-19T00:39:14;5.13;;;3.20;;
74957;SDS011;63741;42.624;26.276;2023-03-19T00:41:41;6.38;;;3.65;;
74957;SDS011;63741;42.624;26.276;2023-03-19T00:44:16;5.38;;;2.78;;
74957;SDS011;63741;42.624;26.276;2023-03-19T00:46:44;7.57;;;3.88;;
74957;SDS011;63741;42.624;26.276;2023-03-19T00:49:12;7.75;;;3.80;;
74957;SDS011;63741;42.624;26.276;2023-03-19T00:51:39;7.03;;;3.97;;
74957;SDS011;63741;42.624;26.276;2023-03-19T00:54:10;6.35;;;3.78;;
74957;SDS011;63741;42.624;26.276;2023-03-19T00:56:37;6.53;;;3.78;;
74957;SDS011;63741;42.624;26.276;2023-03-19T00:59:04;6.20;;;3.85;;
74957;SDS011;63741;42.624;26.276;2023-03-19T01:01:32;7.60;;;3.22;;
74957;SDS011;63741;42.624;26.276;2023-03-19T01:04:00;8.70;;;4.45;;
74957;SDS011;63741;42.624;26.276;2023-03-19T01:06:27;6.30;;;3.70;;
74957;SDS011;63741;42.624;26.276;2023-03-19T01:08:54;7.30;;;3.42;;
74957;SDS011;63741;42.624;26.276;2023-03-19T01:11:23;5.55;;;3.53;;
74957;SDS011;63741;42.624;26.276;2023-03-19T01:13:50;8.05;;;3.20;;
74957;SDS011;63741;42.624;26.276;2023-03-19T01:16:17;7.07;;;3.35;;
74957;SDS011;63741;42.624;26.276;2023-03-19T01:18:44;7.63;;;3.60;;
74957;SDS011;63741;42.624;26.276;2023-03-19T01:21:11;6.53;;;3.83;;
74957;SDS011;63741;42.624;26.276;2023-03-19T01:23:45;6.55;;;3.10;;
74957;SDS011;63741;42.624;26.276;2023-03-19T01:26:12;6.22;;;3.67;;
74957;SDS011;63741;42.624;26.276;2023-03-19T01:28:39;7.70;;;3.90;;
74957;SDS011;63741;42.624;26.276;2023-03-19T01:31:08;6.63;;;3.53;;
74957;SDS011;63741;42.624;26.276;2023-03-19T01:34:04;6.72;;;3.47;;
74957;SDS011;63741;42.624;26.276;2023-03-19T01:36:43;7.60;;;3.28;;
74957;SDS011;63741;42.624;26.276;2023-03-19T01:39:11;6.15;;;3.47;;
74957;SDS011;63741;42.624;26.276;2023-03-19T01:41:39;6.20;;;3.50;;
74957;SDS011;63741;42.624;26.276;2023-03-19T01:44:36;6.80;;;3.67;;
74957;SDS011;63741;42.624;26.276;2023-03-19T01:47:30;6.20;;;3.65;;
74957;SDS011;63741;42.624;26.276;2023-03-19T01:50:33;5.82;;;3.33;;
74957;SDS011;63741;42.624;26.276;2023-03-19T01:53:35;9.63;;;3.35;;
74957;SDS011;63741;42.624;26.276;2023-03-19T01:56:32;6.70;;;3.45;;
74957;SDS011;63741;42.624;26.276;2023-03-19T01:59:14;5.93;;;2.88;;
74957;SDS011;63741;42.624;26.276;2023-03-19T02:02:12;6.18;;;3.72;;
74957;SDS011;63741;42.624;26.276;2023-03-19T02:04:46;7.65;;;3.45;;
74957;SDS011;63741;42.624;26.276;2023-03-19T02:07:17;6.93;;;3.30;;
74957;SDS011;63741;42.624;26.276;2023-03-19T02:09:44;6.72;;;3.17;;
74957;SDS011;63741;42.624;26.276;2023-03-19T02:12:12;6.50;;;3.47;;
74957;SDS011;63741;42.624;26.276;2023-03-19T02:14:40;6.20;;;3.78;;
74957;SDS011;63741;42.624;26.276;2023-03-19T02:17:07;6.55;;;4.00;;
74957;SDS011;63741;42.624;26.276;2023-03-19T02:19:37;7.63;;;3.63;;
74957;SDS011;63741;42.624;26.276;2023-03-19T02:22:21;6.15;;;3.30;;
74957;SDS011;63741;42.624;26.276;2023-03-19T02:24:55;6.65;;;3.83;;
74957;SDS011;63741;42.624;26.276;2023-03-19T02:27:28;7.63;;;3.35;;
74957;SDS011;63741;42.624;26.276;2023-03-19T02:29:56;7.03;;;3.30;;
74957;SDS011;63741;42.624;26.276;2023-03-19T02:32:23;5.90;;;3.60;;
74957;SDS011;63741;42.624;26.276;2023-03-19T02:34:50;5.57;;;3.40;;
74957;SDS011;63741;42.624;26.276;2023-03-19T02:39:58;6.07;;;3.25;;
74957;SDS011;63741;42.624;26.276;2023-03-19T02:42:30;7.00;;;3.53;;
74957;SDS011;63741;42.624;26.276;2023-03-19T02:44:56;5.72;;;3.13;;
74957;SDS011;63741;42.624;26.276;2023-03-19T02:47:24;5.03;;;3.40;;
74957;SDS011;63741;42.624;26.276;2023-03-19T02:49:52;6.78;;;3.55;;
74957;SDS011;63741;42.624;26.276;2023-03-19T02:52:21;6.15;;;3.90;;
74957;SDS011;63741;42.624;26.276;2023-03-19T02:54:48;6.18;;;3.80;;
74957;SDS011;63741;42.624;26.276;2023-03-19T02:57:15;7.53;;;3.80;;
74957;SDS011;63741;42.624;26.276;2023-03-19T02:59:42;6.43;;;3.60;;
74957;SDS011;63741;42.624;26.276;2023-03-19T03:02:10;7.22;;;3.80;;
74957;SDS011;63741;42.624;26.276;2023-03-19T03:04:37;6.57;;;4.00;;
74957;SDS011;63741;42.624;26.276;2023-03-19T03:07:04;5.97;;;3.05;;
74957;SDS011;63741;42.624;26.276;2023-03-19T03:09:31;8.63;;;3.70;;
74957;SDS011;63741;42.624;26.276;2023-03-19T03:11:58;6.43;;;3.20;;
74957;SDS011;63741;42.624;26.276;2023-03-19T03:14:26;9.05;;;3.30;;
74957;SDS011;63741;42.624;26.276;2023-03-19T03:16:53;5.85;;;3.08;;
74957;SDS011;63741;42.624;26.276;2023-03-19T03:19:19;4.93;;;3.13;;
74957;SDS011;63741;42.624;26.276;2023-03-19T03:21:47;6.18;;;3.13;;
74957;SDS011;63741;42.624;26.276;2023-03-19T03:24:14;4.70;;;3.10;;
74957;SDS011;63741;42.624;26.276;2023-03-19T03:26:40;6.53;;;3.53;;
74957;SDS011;63741;42.624;26.276;2023-03-19T03:29:08;7.70;;;3.63;;
74957;SDS011;63741;42.624;26.276;2023-03-19T03:31:34;6.63;;;4.10;;
74957;SDS011;63741;42.624;26.276;2023-03-19T03:34:02;7.63;;;3.70;;
74957;SDS011;63741;42.624;26.276;2023-03-19T03:36:29;6.57;;;3.67;;
74957;SDS011;63741;42.624;26.276;2023-03-19T03:38:56;8.02;;;4.20;;
74957;SDS011;63741;42.624;26.276;2023-03-19T03:41:24;6.55;;;3.90;;
74957;SDS011;63741;42.624;26.276;2023-03-19T03:43:51;6.75;;;4.38;;
74957;SDS011;63741;42.624;26.276;2023-03-19T03:46:18;8.18;;;4.30;;
74957;SDS011;63741;42.624;26.276;2023-03-19T03:48:48;9.48;;;4.15;;
74957;SDS011;63741;42.624;26.276;2023-03-19T03:51:17;5.53;;;3.50;;
74957;SDS011;63741;42.624;26.276;2023-03-19T03:53:45;6.80;;;3.75;;
74957;SDS011;63741;42.624;26.276;2023-03-19T03:56:13;6.95;;;4.40;;
74957;SDS011;63741;42.624;26.276;2023-03-19T03:58:40;7.78;;;3.83;;
74957;SDS011;63741;42.624;26.276;2023-03-19T04:01:07;6.78;;;3.47;;
74957;SDS011;63741;42.624;26.276;2023-03-19T04:03:34;9.48;;;5.10;;
74957;SDS011;63741;42.624;26.276;2023-03-19T04:06:01;14.88;;;5.60;;
74957;SDS011;63741;42.624;26.276;2023-03-19T04:08:29;10.32;;;4.40;;
74957;SDS011;63741;42.624;26.276;2023-03-19T04:10:56;10.35;;;4.75;;
74957;SDS011;63741;42.624;26.276;2023-03-19T04:13:24;10.77;;;4.90;;
74957;SDS011;63741;42.624;26.276;2023-03-19T04:15:51;10.50;;;5.15;;
74957;SDS011;63741;42.624;26.276;2023-03-19T04:18:22;9.85;;;4.95;;
74957;SDS011;63741;42.624;26.276;2023-03-19T04:20:49;8.20;;;4.45;;
74957;SDS011;63741;42.624;26.276;2023-03-19T04:23:17;7.30;;;4.38;;
74957;SDS011;63741;42.624;26.276;2023-03-19T04:25:44;6.63;;;4.18;;
74957;SDS011;63741;42.624;26.276;2023-03-19T04:28:12;8.73;;;4.28;;
74957;SDS011;63741;42.624;26.276;2023-03-19T04:30:39;7.32;;;4.05;;
74957;SDS011;63741;42.624;26.276;2023-03-19T04:33:07;7.80;;;4.22;;
74957;SDS011;63741;42.624;26.276;2023-03-19T04:35:37;6.10;;;3.65;;
74957;SDS011;63741;42.624;26.276;2023-03-19T04:38:04;10.32;;;4.53;;
74957;SDS011;63741;42.624;26.276;2023-03-19T04:40:31;10.55;;;5.15;;
74957;SDS011;63741;42.624;26.276;2023-03-19T04:42:59;12.05;;;5.60;;
74957;SDS011;63741;42.624;26.276;2023-03-19T04:45:33;10.55;;;5.20;;
74957;SDS011;63741;42.624;26.276;2023-03-19T04:48:01;10.32;;;5.10;;
74957;SDS011;63741;42.624;26.276;2023-03-19T04:50:31;8.07;;;4.78;;
74957;SDS011;63741;42.624;26.276;2023-03-19T04:52:59;11.13;;;4.20;;
74957;SDS011;63741;42.624;26.276;2023-03-19T04:55:28;7.35;;;3.85;;
74957;SDS011;63741;42.624;26.276;2023-03-19T04:58:05;13.02;;;7.18;;
74957;SDS011;63741;42.624;26.276;2023-03-19T05:00:34;102.13;;;56.30;;
74957;SDS011;63741;42.624;26.276;2023-03-19T05:03:01;45.17;;;26.42;;
74957;SDS011;63741;42.624;26.276;2023-03-19T05:05:30;35.38;;;20.50;;
74957;SDS011;63741;42.624;26.276;2023-03-19T05:07:57;14.30;;;8.88;;
74957;SDS011;63741;42.624;26.276;2023-03-19T05:10:25;17.35;;;8.93;;
74957;SDS011;63741;42.624;26.276;2023-03-19T05:12:52;10.57;;;5.90;;
74957;SDS011;63741;42.624;26.276;2023-03-19T05:15:19;11.85;;;6.00;;
74957;SDS011;63741;42.624;26.276;2023-03-19T05:17:55;14.80;;;6.38;;
74957;SDS011;63741;42.624;26.276;2023-03-19T05:20:28;14.55;;;6.60;;
74957;SDS011;63741;42.624;26.276;2023-03-19T05:23:01;11.02;;;5.35;;
74957;SDS011;63741;42.624;26.276;2023-03-19T05:25:43;12.20;;;5.53;;
74957;SDS011;63741;42.624;26.276;2023-03-19T05:28:13;13.27;;;5.93;;
74957;SDS011;63741;42.624;26.276;2023-03-19T05:30:41;9.75;;;5.20;;
74957;SDS011;63741;42.624;26.276;2023-03-19T05:33:19;11.88;;;5.72;;
74957;SDS011;63741;42.624;26.276;2023-03-19T05:35:49;11.07;;;5.72;;
74957;SDS011;63741;42.624;26.276;2023-03-19T05:38:23;16.67;;;5.90;;
74957;SDS011;63741;42.624;26.276;2023-03-19T05:40:54;15.40;;;5.30;;
74957;SDS011;63741;42.624;26.276;2023-03-19T05:43:33;9.93;;;6.07;;
74957;SDS011;63741;42.624;26.276;2023-03-19T05:46:04;11.60;;;6.40;;
74957;SDS011;63741;42.624;26.276;2023-03-19T05:48:32;9.55;;;5.25;;
74957;SDS011;63741;42.624;26.276;2023-03-19T05:51:02;15.15;;;5.13;;
74957;SDS011;63741;42.624;26.276;2023-03-19T05:53:34;17.90;;;5.50;;
74957;SDS011;63741;42.624;26.276;2023-03-19T05:56:21;10.55;;;4.50;;
74957;SDS011;63741;42.624;26.276;2023-03-19T05:59:23;11.32;;;5.50;;
74957;SDS011;63741;42.624;26.276;2023-03-19T06:02:03;6.20;;;3.67;;
74957;SDS011;63741;42.624;26.276;2023-03-19T06:04:30;7.22;;;4.43;;
74957;SDS011;63741;42.624;26.276;2023-03-19T06:06:57;7.47;;;4.15;;
74957;SDS011;63741;42.624;26.276;2023-03-19T06:09:24;7.13;;;3.88;;
74957;SDS011;63741;42.624;26.276;2023-03-19T06:11:54;12.75;;;4.10;;
74957;SDS011;63741;42.624;26.276;2023-03-19T06:14:40;7.45;;;3.83;;
74957;SDS011;63741;42.624;26.276;2023-03-19T06:17:27;9.50;;;4.45;;
74957;SDS011;63741;42.624;26.276;2023-03-19T06:19:58;8.35;;;4.60;;
74957;SDS011;63741;42.624;26.276;2023-03-19T06:22:26;9.20;;;6.28;;
74957;SDS011;63741;42.624;26.276;2023-03-19T06:24:53;9.98;;;5.30;;
74957;SDS011;63741;42.624;26.276;2023-03-19T06:27:20;8.15;;;4.55;;
74957;SDS011;63741;42.624;26.276;2023-03-19T06:29:47;6.10;;;3.60;;
74957;SDS011;63741;42.624;26.276;2023-03-19T06:32:20;14.18;;;3.95;;
74957;SDS011;63741;42.624;26.276;2023-03-19T06:34:49;11.35;;;3.83;;
74957;SDS011;63741;42.624;26.276;2023-03-19T06:37:16;11.15;;;3.78;;
74957;SDS011;63741;42.624;26.276;2023-03-19T06:39:44;23.08;;;5.13;;
74957;SDS011;63741;42.624;26.276;2023-03-19T06:42:11;8.07;;;4.50;;
74957;SDS011;63741;42.624;26.276;2023-03-19T06:44:39;12.05;;;5.63;;
74957;SDS011;63741;42.624;26.276;2023-03-19T06:47:06;7.07;;;4.40;;
74957;SDS011;63741;42.624;26.276;2023-03-19T06:49:36;8.20;;;4.53;;
74957;SDS011;63741;42.624;26.276;2023-03-19T06:52:06;9.20;;;3.88;;
74957;SDS011;63741;42.624;26.276;2023-03-19T06:54:33;9.15;;;3.92;;
74957;SDS011;63741;42.624;26.276;2023-03-19T06:57:03;7.25;;;4.28;;
74957;SDS011;63741;42.624;26.276;2023-03-19T06:59:30;10.43;;;4.57;;
74957;SDS011;63741;42.624;26.276;2023-03-19T07:01:57;8.77;;;4.30;;
74957;SDS011;63741;42.624;26.276;2023-03-19T07:04:24;8.45;;;4.00;;
74957;SDS011;63741;42.624;26.276;2023-03-19T07:06:51;7.85;;;5.10;;
74957;SDS011;63741;42.624;26.276;2023-03-19T07:09:18;9.73;;;4.43;;
74957;SDS011;63741;42.624;26.276;2023-03-19T07:11:44;7.43;;;3.85;;
74957;SDS011;63741;42.624;26.276;2023-03-19T07:14:11;6.28;;;3.95;;
74957;SDS011;63741;42.624;26.276;2023-03-19T07:16:38;6.63;;;3.72;;
74957;SDS011;63741;42.624;26.276;2023-03-19T07:19:05;14.02;;;4.60;;
74957;SDS011;63741;42.624;26.276;2023-03-19T07:21:32;8.15;;;4.22;;
74957;SDS011;63741;42.624;26.276;2023-03-19T07:23:59;7.20;;;3.97;;
74957;SDS011;63741;42.624;26.276;2023-03-19T07:26:26;8.75;;;4.22;;
74957;SDS011;63741;42.624;26.276;2023-03-19T07:28:53;6.57;;;4.03;;
74957;SDS011;63741;42.624;26.276;2023-03-19T07:31:21;8.43;;;4.00;;
74957;SDS011;63741;42.624;26.276;2023-03-19T07:33:50;6.57;;;4.18;;
74957;SDS011;63741;42.624;26.276;2023-03-19T07:36:18;8.13;;;4.43;;
74957;SDS011;63741;42.624;26.276;2023-03-19T07:38:47;6.50;;;4.07;;
74957;SDS011;63741;42.624;26.276;2023-03-19T07:41:14;7.00;;;4.15;;
74957;SDS011;63741;42.624;26.276;2023-03-19T07:43:40;8.52;;;4.13;;
74957;SDS011;63741;42.624;26.276;2023-03-19T07:46:07;6.53;;;4.00;;
74957;SDS011;63741;42.624;26.276;2023-03-19T07:48:35;6.70;;;4.25;;
74957;SDS011;63741;42.624;26.276;2023-03-19T07:51:02;9.18;;;3.88;;
74957;SDS011;63741;42.624;26.276;2023-03-19T07:53:29;7.65;;;4.20;;
74957;SDS011;63741;42.624;26.276;2023-03-19T07:55:56;6.82;;;3.40;;
74957;SDS011;63741;42.624;26.276;2023-03-19T07:58:23;7.72;;;3.40;;
74957;SDS011;63741;42.624;26.276;2023-03-19T08:00:52;6.20;;;3.22;;
74957;SDS011;63741;42.624;26.276;2023-03-19T08:03:19;6.28;;;3.80;;
74957;SDS011;63741;42.624;26.276;2023-03-19T08:05:47;6.90;;;4.38;;
74957;SDS011;63741;42.624;26.276;2023-03-19T08:08:15;6.47;;;4.00;;
74957;SDS011;63741;42.624;26.276;2023-03-19T08:10:43;8.13;;;4.18;;
74957;SDS011;63741;42.624;26.276;2023-03-19T08:13:09;6.40;;;3.90;;
74957;SDS011;63741;42.624;26.276;2023-03-19T08:15:36;8.52;;;4.07;;
74957;SDS011;63741;42.624;26.276;2023-03-19T08:18:03;11.05;;;3.90;;
74957;SDS011;63741;42.624;26.276;2023-03-19T08:20:31;6.15;;;3.90;;
74957;SDS011;63741;42.624;26.276;2023-03-19T08:22:59;8.68;;;3.72;;
74957;SDS011;63741;42.624;26.276;2023-03-19T08:25:26;6.05;;;3.65;;
74957;SDS011;63741;42.624;26.276;2023-03-19T08:27:58;9.23;;;3.83;;
74957;SDS011;63741;42.624;26.276;2023-03-19T08:30:27;5.63;;;3.40;;
74957;SDS011;63741;42.624;26.276;2023-03-19T08:32:54;5.93;;;3.53;;
74957;SDS011;63741;42.624;26.276;2023-03-19T08:35:22;8.63;;;3.45;;
74957;SDS011;63741;42.624;26.276;2023-03-19T08:37:52;4.53;;;2.92;;
74957;SDS011;63741;42.624;26.276;2023-03-19T08:40:20;4.35;;;2.83;;
74957;SDS011;63741;42.624;26.276;2023-03-19T08:42:47;6.28;;;3.20;;
74957;SDS011;63741;42.624;26.276;2023-03-19T08:45:14;5.40;;;3.72;;
74957;SDS011;63741;42.624;26.276;2023-03-19T08:47:42;5.55;;;3.83;;
74957;SDS011;63741;42.624;26.276;2023-03-19T08:50:09;10.63;;;3.03;;
74957;SDS011;63741;42.624;26.276;2023-03-19T08:52:37;5.68;;;3.67;;
74957;SDS011;63741;42.624;26.276;2023-03-19T08:55:04;6.00;;;3.47;;
74957;SDS011;63741;42.624;26.276;2023-03-19T08:57:32;7.00;;;3.47;;
74957;SDS011;63741;42.624;26.276;2023-03-19T08:59:59;5.28;;;3.60;;
74957;SDS011;63741;42.624;26.276;2023-03-19T09:02:27;6.25;;;3.85;;
74957;SDS011;63741;42.624;26.276;2023-03-19T09:04:54;5.65;;;3.58;;
74957;SDS011;63741;42.624;26.276;2023-03-19T09:07:21;5.28;;;3.40;;
74957;SDS011;63741;42.624;26.276;2023-03-19T09:09:48;5.03;;;3.30;;
74957;SDS011;63741;42.624;26.276;2023-03-19T09:12:15;8.52;;;3.35;;
74957;SDS011;63741;42.624;26.276;2023-03-19T09:14:42;5.25;;;3.53;;
74957;SDS011;63741;42.624;26.276;2023-03-19T09:17:10;6.88;;;3.95;;
74957;SDS011;63741;42.624;26.276;2023-03-19T09:19:38;7.80;;;4.30;;
74957;SDS011;63741;42.624;26.276;2023-03-19T09:22:07;6.75;;;4.15;;
74957;SDS011;63741;42.624;26.276;2023-03-19T09:24:34;5.75;;;3.40;;
74957;SDS011;63741;42.624;26.276;2023-03-19T09:27:01;6.38;;;4.30;;
74957;SDS011;63741;42.624;26.276;2023-03-19T09:29:28;6.22;;;3.60;;
74957;SDS011;63741;42.624;26.276;2023-03-19T09:31:55;6.15;;;3.40;;
74957;SDS011;63741;42.624;26.276;2023-03-19T09:34:22;6.85;;;3.10;;
74957;SDS011;63741;42.624;26.276;2023-03-19T09:36:49;5.55;;;3.25;;
74957;SDS011;63741;42.624;26.276;2023-03-19T09:39:16;7.13;;;3.50;;
74957;SDS011;63741;42.624;26.276;2023-03-19T09:41:54;6.03;;;3.60;;
74957;SDS011;63741;42.624;26.276;2023-03-19T09:44:34;5.32;;;3.08;;
74957;SDS011;63741;42.624;26.276;2023-03-19T09:49:52;5.95;;;3.20;;
74957;SDS011;63741;42.624;26.276;2023-03-19T09:52:27;6.07;;;2.90;;
74957;SDS011;63741;42.624;26.276;2023-03-19T09:54:56;4.20;;;2.95;;
74957;SDS011;63741;42.624;26.276;2023-03-19T09:57:28;5.68;;;3.20;;
74957;SDS011;63741;42.624;26.276;2023-03-19T09:59:55;5.22;;;3.00;;
74957;SDS011;63741;42.624;26.276;2023-03-19T10:02:25;4.07;;;3.00;;
74957;SDS011;63741;42.624;26.276;2023-03-19T10:05:16;4.72;;;3.05;;
74957;SDS011;63741;42.624;26.276;2023-03-19T10:07:52;5.55;;;3.40;;
74957;SDS011;63741;42.624;26.276;2023-03-19T10:13:42;4.32;;;2.63;;
74957;SDS011;63741;42.624;26.276;2023-03-19T10:16:21;4.18;;;2.85;;
74957;SDS011;63741;42.624;26.276;2023-03-19T10:18:51;6.70;;;3.78;;
74957;SDS011;63741;42.624;26.276;2023-03-19T10:24:08;5.97;;;3.28;;
74957;SDS011;63741;42.624;26.276;2023-03-19T10:26:42;4.93;;;3.42;;
74957;SDS011;63741;42.624;26.276;2023-03-19T10:29:13;6.82;;;3.03;;
74957;SDS011;63741;42.624;26.276;2023-03-19T10:34:22;4.97;;;3.03;;
74957;SDS011;63741;42.624;26.276;2023-03-19T10:37:04;9.75;;;3.17;;
74957;SDS011;63741;42.624;26.276;2023-03-19T10:39:36;6.05;;;2.78;;
74957;SDS011;63741;42.624;26.276;2023-03-19T10:42:06;17.67;;;3.63;;
74957;SDS011;63741;42.624;26.276;2023-03-19T10:47:46;4.10;;;2.75;;
74957;SDS011;63741;42.624;26.276;2023-03-19T10:50:17;13.23;;;3.33;;
74957;SDS011;63741;42.624;26.276;2023-03-19T10:52:49;7.85;;;3.22;;
74957;SDS011;63741;42.624;26.276;2023-03-19T10:55:22;3.60;;;2.60;;
74957;SDS011;63741;42.624;26.276;2023-03-19T10:57:55;4.05;;;3.00;;
74957;SDS011;63741;42.624;26.276;2023-03-19T11:00:29;4.82;;;3.13;;
74957;SDS011;63741;42.624;26.276;2023-03-19T11:03:01;9.18;;;3.15;;
74957;SDS011;63741;42.624;26.276;2023-03-19T11:05:31;5.50;;;2.97;;
74957;SDS011;63741;42.624;26.276;2023-03-19T11:08:00;5.00;;;3.13;;
74957;SDS011;63741;42.624;26.276;2023-03-19T11:11:00;5.25;;;3.08;;
74957;SDS011;63741;42.624;26.276;2023-03-19T11:13:27;8.27;;;3.20;;
74957;SDS011;63741;42.624;26.276;2023-03-19T11:15:56;6.90;;;3.00;;
74957;SDS011;63741;42.624;26.276;2023-03-19T11:18:27;4.40;;;2.60;;
74957;SDS011;63741;42.624;26.276;2023-03-19T11:21:00;6.93;;;3.40;;
74957;SDS011;63741;42.624;26.276;2023-03-19T11:23:36;6.00;;;2.95;;
74957;SDS011;63741;42.624;26.276;2023-03-19T11:26:05;5.18;;;3.15;;
74957;SDS011;63741;42.624;26.276;2023-03-19T11:28:33;4.50;;;2.92;;
74957;SDS011;63741;42.624;26.276;2023-03-19T11:36:32;8.55;;;3.33;;
74957;SDS011;63741;42.624;26.276;2023-03-19T11:47:32;9.18;;;3.10;;
74957;SDS011;63741;42.624;26.276;2023-03-19T11:50:29;4.40;;;3.00;;
74957;SDS011;63741;42.624;26.276;2023-03-19T11:55:47;6.32;;;3.25;;
74957;SDS011;63741;42.624;26.276;2023-03-19T12:01:48;6.18;;;2.90;;
74957;SDS011;63741;42.624;26.276;2023-03-19T12:10:28;4.82;;;3.15;;
74957;SDS011;63741;42.624;26.276;2023-03-19T12:35:02;6.32;;;3.08;;
74957;SDS011;63741;42.624;26.276;2023-03-19T12:37:46;4.35;;;2.92;;
74957;SDS011;63741;42.624;26.276;2023-03-19T12:43:05;7.18;;;3.30;;
74957;SDS011;63741;42.624;26.276;2023-03-19T12:45:44;7.05;;;3.40;;
74957;SDS011;63741;42.624;26.276;2023-03-19T12:48:18;6.47;;;4.35;;
74957;SDS011;63741;42.624;26.276;2023-03-19T12:50:53;11.88;;;5.88;;
74957;SDS011;63741;42.624;26.276;2023-03-19T12:53:34;5.18;;;3.30;;
74957;SDS011;63741;42.624;26.276;2023-03-19T12:56:08;4.13;;;3.10;;
74957;SDS011;63741;42.624;26.276;2023-03-19T12:59:00;7.65;;;3.80;;
74957;SDS011;63741;42.624;26.276;2023-03-19T13:01:36;8.32;;;4.28;;
74957;SDS011;63741;42.624;26.276;2023-03-19T13:04:18;5.88;;;4.20;;
74957;SDS011;63741;42.624;26.276;2023-03-19T13:09:43;10.93;;;3.55;;
74957;SDS011;63741;42.624;26.276;2023-03-19T13:12:17;7.88;;;3.75;;
74957;SDS011;63741;42.624;26.276;2023-03-19T13:17:41;7.40;;;4.45;;
74957;SDS011;63741;42.624;26.276;2023-03-19T13:20:36;8.52;;;5.32;;
74957;SDS011;63741;42.624;26.276;2023-03-19T13:23:25;7.47;;;5.15;;
74957;SDS011;63741;42.624;26.276;2023-03-19T13:25:56;9.02;;;5.38;;
74957;SDS011;63741;42.624;26.276;2023-03-19T13:28:28;9.10;;;6.15;;
74957;SDS011;63741;42.624;26.276;2023-03-19T13:31:01;9.55;;;5.68;;
74957;SDS011;63741;42.624;26.276;2023-03-19T13:34:01;8.68;;;6.07;;
74957;SDS011;63741;42.624;26.276;2023-03-19T13:36:35;10.80;;;5.68;;
74957;SDS011;63741;42.624;26.276;2023-03-19T13:39:10;9.35;;;5.40;;
74957;SDS011;63741;42.624;26.276;2023-03-19T13:46:52;10.05;;;5.88;;
74957;SDS011;63741;42.624;26.276;2023-03-19T13:49:23;14.73;;;6.57;;
74957;SDS011;63741;42.624;26.276;2023-03-19T13:51:53;11.98;;;7.10;;
74957;SDS011;63741;42.624;26.276;2023-03-19T13:54:30;10.25;;;6.63;;
74957;SDS011;63741;42.624;26.276;2023-03-19T13:59:37;10.38;;;6.50;;
74957;SDS011;63741;42.624;26.276;2023-03-19T14:07:19;13.77;;;6.78;;
74957;SDS011;63741;42.624;26.276;2023-03-19T14:09:50;10.85;;;6.78;;
74957;SDS011;63741;42.624;26.276;2023-03-19T14:12:33;11.90;;;7.80;;
74957;SDS011;63741;42.624;26.276;2023-03-19T14:17:37;9.98;;;6.30;;
74957;SDS011;63741;42.624;26.276;2023-03-19T14:36:40;13.02;;;7.28;;
74957;SDS011;63741;42.624;26.276;2023-03-19T14:45:07;11.65;;;6.38;;
74957;SDS011;63741;42.624;26.276;2023-03-19T14:56:24;11.55;;;6.25;;
74957;SDS011;63741;42.624;26.276;2023-03-19T14:59:02;13.65;;;7.35;;
74957;SDS011;63741;42.624;26.276;2023-03-19T15:01:30;13.38;;;6.95;;
74957;SDS011;63741;42.624;26.276;2023-03-19T15:03:59;15.43;;;7.85;;
74957;SDS011;63741;42.624;26.276;2023-03-19T15:06:40;12.35;;;8.80;;
74957;SDS011;63741;42.624;26.276;2023-03-19T15:09:43;13.32;;;7.07;;
74957;SDS011;63741;42.624;26.276;2023-03-19T15:14:50;14.50;;;6.80;;
74957;SDS011;63741;42.624;26.276;2023-03-19T15:17:28;22.13;;;7.47;;
74957;SDS011;63741;42.624;26.276;2023-03-19T15:19:57;14.52;;;6.85;;
74957;SDS011;63741;42.624;26.276;2023-03-19T15:22:30;11.63;;;7.28;;
74957;SDS011;63741;42.624;26.276;2023-03-19T15:25:09;11.30;;;6.93;;
74957;SDS011;63741;42.624;26.276;2023-03-19T15:27:39;13.50;;;7.35;;
74957;SDS011;63741;42.624;26.276;2023-03-19T15:30:20;12.25;;;6.53;;
74957;SDS011;63741;42.624;26.276;2023-03-19T15:32:50;13.70;;;6.53;;
74957;SDS011;63741;42.624;26.276;2023-03-19T15:35:34;11.75;;;6.50;;
74957;SDS011;63741;42.624;26.276;2023-03-19T15:38:05;11.85;;;6.38;;
74957;SDS011;63741;42.624;26.276;2023-03-19T15:40:34;15.15;;;7.22;;
74957;SDS011;63741;42.624;26.276;2023-03-19T15:43:03;12.00;;;6.72;;
74957;SDS011;63741;42.624;26.276;2023-03-19T15:45:30;13.05;;;7.38;;
74957;SDS011;63741;42.624;26.276;2023-03-19T15:50:43;19.73;;;9.52;;
74957;SDS011;63741;42.624;26.276;2023-03-19T15:53:14;20.73;;;9.88;;
74957;SDS011;63741;42.624;26.276;2023-03-19T15:55:48;23.45;;;9.73;;
74957;SDS011;63741;42.624;26.276;2023-03-19T15:58:19;19.55;;;10.23;;
74957;SDS011;63741;42.624;26.276;2023-03-19T16:00:49;29.90;;;10.52;;
74957;SDS011;63741;42.624;26.276;2023-03-19T16:03:41;21.35;;;9.68;;
74957;SDS011;63741;42.624;26.276;2023-03-19T16:06:28;23.25;;;10.00;;
74957;SDS011;63741;42.624;26.276;2023-03-19T16:09:12;15.18;;;9.10;;
74957;SDS011;63741;42.624;26.276;2023-03-19T16:11:44;17.55;;;9.00;;
74957;SDS011;63741;42.624;26.276;2023-03-19T16:16:48;13.18;;;8.80;;
74957;SDS011;63741;42.624;26.276;2023-03-19T16:19:32;17.48;;;10.07;;
74957;SDS011;63741;42.624;26.276;2023-03-19T16:22:15;24.13;;;11.68;;
74957;SDS011;63741;42.624;26.276;2023-03-19T16:24:44;22.40;;;15.98;;
74957;SDS011;63741;42.624;26.276;2023-03-19T16:27:16;81.88;;;48.45;;
74957;SDS011;63741;42.624;26.276;2023-03-19T16:29:46;39.65;;;27.58;;
74957;SDS011;63741;42.624;26.276;2023-03-19T16:32:27;32.72;;;23.65;;
74957;SDS011;63741;42.624;26.276;2023-03-19T16:34:56;41.78;;;21.05;;
74957;SDS011;63741;42.624;26.276;2023-03-19T16:37:46;38.95;;;15.80;;
74957;SDS011;63741;42.624;26.276;2023-03-19T16:42:49;29.30;;;17.10;;
74957;SDS011;63741;42.624;26.276;2023-03-19T16:47:53;34.15;;;19.65;;
74957;SDS011;63741;42.624;26.276;2023-03-19T16:50:30;20.33;;;12.52;;
74957;SDS011;63741;42.624;26.276;2023-03-19T16:53:01;19.10;;;11.93;;
74957;SDS011;63741;42.624;26.276;2023-03-19T16:55:31;23.40;;;13.07;;
74957;SDS011;63741;42.624;26.276;2023-03-19T17:00:30;20.73;;;12.40;;
74957;SDS011;63741;42.624;26.276;2023-03-19T17:02:58;27.63;;;12.55;;
74957;SDS011;63741;42.624;26.276;2023-03-19T17:05:26;18.15;;;11.35;;
74957;SDS011;63741;42.624;26.276;2023-03-19T17:07:54;17.77;;;10.30;;
74957;SDS011;63741;42.624;26.276;2023-03-19T17:10:22;18.80;;;9.98;;
74957;SDS011;63741;42.624;26.276;2023-03-19T17:12:53;18.65;;;11.65;;